Time;durP1;ratioP1;P1;durP2;ratioP2;P2;SDS_P1;SDS_P2;PMS_P1;PMS_P2;Temp;Humidity;BMP_temperature;BMP_pressure;BME280_temperature;BME280_humidity;BME280_pressure;Samples;Min_cycle;Max_cycle;Signal;HPM_P1;HPM_P2
2021/07/07 00:00:54;;;;;;;3.88;1.15;;;;;;;16.32;91.22;101044.34;6287644;28;20049;-76
2021/07/07 00:03:56;;;;;;;4.53;1.27;;;;;;;16.31;91.78;101032.03;6286025;28;20044;-77
2021/07/07 00:06:58;;;;;;;6.53;0.98;;;;;;;16.29;92.57;101033.94;6280131;28;20045;-76
2021/07/07 00:10:00;;;;;;;8.63;1.30;;;;;;;16.26;92.43;101036.81;6294663;28;20045;-76
2021/07/07 00:13:03;;;;;;;6.03;1.10;;;;;;;16.27;92.83;101038.53;6295262;28;20070;-77
2021/07/07 00:16:05;;;;;;;7.22;1.45;;;;;;;16.21;92.80;101051.28;6282597;28;20381;-78
2021/07/07 00:19:07;;;;;;;4.88;1.23;;;;;;;16.16;94.08;101039.28;6295300;28;20048;-77
2021/07/07 00:22:09;;;;;;;5.22;1.40;;;;;;;16.12;94.34;101059.00;6295494;28;20045;-78
2021/07/07 00:25:12;;;;;;;5.47;1.45;;;;;;;16.09;94.57;101048.66;6295416;28;20049;-78
2021/07/07 00:28:13;;;;;;;7.28;1.35;;;;;;;16.05;93.69;101047.16;6295272;28;20041;-77
2021/07/07 00:31:14;;;;;;;11.15;1.48;;;;;;;16.01;94.56;101064.25;6295355;28;20052;-78
2021/07/07 00:34:16;;;;;;;4.47;1.50;;;;;;;15.92;93.77;101063.09;6295114;28;20067;-77
2021/07/07 00:37:18;;;;;;;10.30;1.40;;;;;;;15.90;94.13;101065.03;6293889;28;20048;-77
2021/07/07 00:40:20;;;;;;;4.72;1.10;;;;;;;15.88;94.33;101070.41;6291654;28;20044;-75
2021/07/07 00:43:21;;;;;;;4.18;1.60;;;;;;;15.86;94.98;101067.03;6295170;28;20488;-77
2021/07/07 00:46:23;;;;;;;4.95;0.90;;;;;;;15.83;94.76;101061.94;6294658;28;20045;-75
2021/07/07 00:49:24;;;;;;;6.38;1.30;;;;;;;15.78;94.74;101058.75;6294718;28;20059;-76
2021/07/07 00:52:27;;;;;;;7.10;1.30;;;;;;;15.77;94.64;101072.13;6294924;28;20044;-78
2021/07/07 00:55:28;;;;;;;4.32;1.10;;;;;;;15.72;94.01;101070.66;6294755;28;20076;-75
2021/07/07 00:58:32;;;;;;;3.92;1.25;;;;;;;15.69;94.27;101076.16;6294492;28;20515;-75
2021/07/07 01:01:35;;;;;;;5.25;1.55;;;;;;;15.66;93.86;101079.00;6294510;28;20056;-76
2021/07/07 01:04:36;;;;;;;9.85;1.40;;;;;;;15.63;93.91;101087.16;6294641;28;20506;-76
2021/07/07 01:07:39;;;;;;;8.00;1.52;;;;;;;15.58;94.37;101083.09;6294158;28;20142;-75
2021/07/07 01:10:40;;;;;;;4.35;1.30;;;;;;;15.54;95.29;101090.44;6294542;28;20052;-76
2021/07/07 01:13:42;;;;;;;5.15;1.40;;;;;;;15.51;95.23;101095.09;6294347;28;20048;-76
2021/07/07 01:16:44;;;;;;;6.22;1.20;;;;;;;15.43;94.92;101091.16;6294440;28;20052;-75
2021/07/07 01:19:45;;;;;;;9.20;1.27;;;;;;;15.41;95.00;101090.41;6293929;28;20048;-75
2021/07/07 01:22:49;;;;;;;4.13;1.25;;;;;;;15.36;95.72;101087.25;6294572;28;20059;-76
2021/07/07 01:25:51;;;;;;;4.90;1.27;;;;;;;15.31;97.26;101088.50;6293457;28;20049;-75
2021/07/07 01:28:52;;;;;;;4.32;1.40;;;;;;;15.27;97.03;101084.38;6294128;28;20061;-76
2021/07/07 01:31:54;;;;;;;3.58;1.10;;;;;;;15.27;97.03;101085.22;6294156;28;20052;-76
2021/07/07 01:34:55;;;;;;;4.68;1.15;;;;;;;15.19;96.76;101077.78;6294324;28;20051;-76
2021/07/07 01:37:58;;;;;;;8.75;1.65;;;;;;;15.16;97.39;101085.06;6293692;28;20696;-76
2021/07/07 01:40:59;;;;;;;6.03;1.63;;;;;;;15.17;96.71;101089.41;6293806;28;20566;-76
2021/07/07 01:44:01;;;;;;;5.75;1.45;;;;;;;15.12;96.74;101081.78;6294088;28;20048;-76
2021/07/07 01:47:03;;;;;;;4.88;1.25;;;;;;;15.08;97.60;101072.38;6293967;28;20040;-76
2021/07/07 01:50:07;;;;;;;3.30;1.30;;;;;;;15.04;97.04;101070.88;6293943;28;20055;-76
2021/07/07 01:53:09;;;;;;;8.15;1.30;;;;;;;15.03;96.95;101070.97;6293837;28;20056;-76
2021/07/07 01:56:11;;;;;;;4.75;1.20;;;;;;;15.00;97.96;101085.25;6293867;28;20051;-76
2021/07/07 01:59:13;;;;;;;7.57;1.98;;;;;;;14.95;97.51;101093.50;6293589;28;20131;-75
2021/07/07 02:02:14;;;;;;;5.88;1.67;;;;;;;14.93;97.70;101087.44;6293829;28;20056;-76
2021/07/07 02:05:16;;;;;;;4.68;1.40;;;;;;;14.91;98.22;101081.41;6294068;28;20059;-75
2021/07/07 02:08:18;;;;;;;10.02;1.73;;;;;;;14.89;98.21;101082.47;6294877;28;20048;-76
2021/07/07 02:11:20;;;;;;;4.80;2.00;;;;;;;14.86;99.30;101094.13;6295659;28;20415;-76
2021/07/07 02:14:21;;;;;;;6.13;1.60;;;;;;;14.83;100.00;101091.66;6295686;28;20048;-76
2021/07/07 02:17:23;;;;;;;4.43;1.67;;;;;;;14.82;99.52;101094.41;6295693;28;20067;-76
2021/07/07 02:20:26;;;;;;;5.53;1.30;;;;;;;14.82;100.00;101095.25;6295534;28;20439;-75
2021/07/07 02:23:28;;;;;;;4.75;2.03;;;;;;;14.82;100.00;101084.69;6295529;28;20423;-75
2021/07/07 02:26:30;;;;;;;8.02;2.35;;;;;;;14.85;99.42;101081.84;6295606;28;20492;-76
2021/07/07 02:29:31;;;;;;;3.38;1.30;;;;;;;14.82;98.18;101084.69;6295484;28;20521;-76
2021/07/07 02:32:32;;;;;;;6.25;1.58;;;;;;;14.87;99.38;101087.88;6295606;28;20055;-76
2021/07/07 02:35:37;;;;;;;11.15;1.77;;;;;;;14.83;98.34;101083.72;6295596;28;20071;-76
2021/07/07 02:38:39;;;;;;;6.18;1.67;;;;;;;14.87;98.49;101082.56;6299448;28;20519;-76
2021/07/07 02:41:41;;;;;;;5.80;1.40;;;;;;;14.84;98.84;101080.13;6299898;28;20388;-76
2021/07/07 02:44:42;;;;;;;7.15;1.33;;;;;;;14.84;99.12;101084.56;6300007;28;20135;-76
2021/07/07 02:47:45;;;;;;;7.78;2.10;;;;;;;14.82;99.65;101086.47;6299473;28;20045;-75
2021/07/07 02:50:47;;;;;;;8.70;1.65;;;;;;;14.84;99.50;101098.63;6299889;28;20546;-75
2021/07/07 02:53:50;;;;;;;6.80;1.67;;;;;;;14.81;98.76;101098.00;6299650;28;20423;-75
2021/07/07 02:56:51;;;;;;;7.20;1.38;;;;;;;14.82;99.32;101103.19;6299636;28;20045;-75
2021/07/07 02:59:53;;;;;;;6.45;1.45;;;;;;;14.83;100.00;101099.59;6299186;28;20060;-76
2021/07/07 03:02:54;;;;;;;6.32;1.60;;;;;;;14.83;100.00;101085.53;6299683;28;20059;-75
2021/07/07 03:05:57;;;;;;;9.50;1.90;;;;;;;14.82;99.73;101097.06;6299163;28;20044;-75
2021/07/07 03:09:02;;;;;;;5.82;1.25;;;;;;;14.81;99.85;101090.06;6299339;28;20060;-75
2021/07/07 03:12:04;;;;;;;4.78;1.58;;;;;;;14.80;100.00;101089.19;6299160;28;20418;-75
2021/07/07 03:15:07;;;;;;;3.28;1.58;;;;;;;14.80;100.00;101096.28;6299436;28;20048;-75
2021/07/07 03:18:10;;;;;;;9.70;1.45;;;;;;;14.77;99.52;101080.66;6299180;28;20056;-75
2021/07/07 03:21:12;;;;;;;9.60;1.67;;;;;;;14.77;100.00;101083.28;6298925;28;20065;-75
2021/07/07 03:24:14;;;;;;;7.18;1.48;;;;;;;14.81;100.00;101093.56;6299068;28;20052;-75
2021/07/07 03:27:16;;;;;;;4.25;1.70;;;;;;;14.80;100.00;101089.19;6298723;28;20045;-75
2021/07/07 03:30:18;;;;;;;4.57;1.73;;;;;;;14.78;100.00;101090.28;6298824;28;20500;-75
2021/07/07 03:33:20;;;;;;;5.55;2.08;;;;;;;14.78;100.00;101095.56;6298726;28;20044;-75
2021/07/07 03:36:21;;;;;;;7.90;1.50;;;;;;;14.78;100.00;101100.84;6298670;28;20051;-75
2021/07/07 03:39:24;;;;;;;11.32;1.90;;;;;;;14.78;100.00;101109.63;6298256;28;20503;-75
2021/07/07 03:42:25;;;;;;;10.43;2.17;;;;;;;14.75;100.00;101111.63;6298725;28;20045;-75
2021/07/07 03:45:27;;;;;;;9.77;1.90;;;;;;;14.72;100.00;101123.28;6298324;28;20049;-75
2021/07/07 03:48:29;;;;;;;4.63;1.40;;;;;;;14.70;100.00;101126.00;6297408;28;20423;-75
2021/07/07 03:51:30;;;;;;;3.20;1.55;;;;;;;14.74;100.00;101131.09;6298259;28;20051;-75
2021/07/07 03:54:33;;;;;;;8.75;2.13;;;;;;;14.72;100.00;101133.84;6298223;28;20053;-75
2021/07/07 03:57:34;;;;;;;7.15;1.50;;;;;;;14.70;100.00;101141.88;6298101;28;20048;-75
2021/07/07 04:00:35;;;;;;;4.65;1.90;;;;;;;14.71;100.00;101142.72;6297964;28;20052;-75
2021/07/07 04:03:37;;;;;;;5.30;1.55;;;;;;;14.73;100.00;101142.63;6298149;28;20052;-75
2021/07/07 04:06:38;;;;;;;5.43;1.88;;;;;;;14.71;100.00;101142.72;6297866;28;20048;-73
2021/07/07 04:09:41;;;;;;;4.60;1.75;;;;;;;14.72;100.00;101141.78;6297933;28;20053;-75
2021/07/07 04:12:43;;;;;;;8.27;2.10;;;;;;;14.77;100.00;101138.84;6297839;28;20060;-75
2021/07/07 04:15:44;;;;;;;8.52;1.75;;;;;;;14.76;100.00;101143.28;6297932;28;20052;-75
2021/07/07 04:18:46;;;;;;;6.65;1.63;;;;;;;14.76;100.00;101143.28;6294076;28;20049;-75
2021/07/07 04:21:48;;;;;;;6.95;2.03;;;;;;;14.77;100.00;101141.50;6297695;28;20055;-75
2021/07/07 04:24:51;;;;;;;5.88;2.22;;;;;;;14.79;100.00;101145.72;6297543;28;20056;-75
2021/07/07 04:27:52;;;;;;;6.05;2.08;;;;;;;14.82;100.00;101147.34;6285701;28;20052;-75
2021/07/07 04:30:54;;;;;;;8.13;2.10;;;;;;;14.82;100.00;101160.56;6272638;28;20045;-75
2021/07/07 04:33:55;;;;;;;10.27;2.22;;;;;;;14.84;100.00;101161.31;6272317;28;20055;-76
2021/07/07 04:36:56;;;;;;;9.07;2.80;;;;;;;14.84;100.00;101159.50;6272253;28;20049;-75
2021/07/07 04:39:59;;;;;;;12.10;2.50;;;;;;;14.84;100.00;101169.25;6271986;28;20578;-75
2021/07/07 04:43:00;;;;;;;9.80;2.53;;;;;;;14.84;100.00;101167.44;6271942;28;20057;-75
2021/07/07 04:46:02;;;;;;;6.88;1.88;;;;;;;14.84;100.00;101169.25;6275132;28;20048;-75
2021/07/07 04:49:03;;;;;;;8.45;2.08;;;;;;;14.86;100.00;101172.66;6282716;28;20056;-75
2021/07/07 04:52:05;;;;;;;8.40;1.67;;;;;;;14.90;100.00;101167.06;6271951;28;20052;-75
2021/07/07 04:55:10;;;;;;;11.20;1.75;;;;;;;14.93;100.00;101174.78;6272019;28;20416;-75
2021/07/07 04:58:12;;;;;;;5.70;1.50;;;;;;;14.94;100.00;101179.16;6274010;28;20048;-75
2021/07/07 05:01:13;;;;;;;10.45;1.90;;;;;;;15.01;100.00;101181.38;6270849;28;20431;-75
2021/07/07 05:04:15;;;;;;;3.72;1.60;;;;;;;15.02;100.00;101180.44;6278488;28;20049;-75
2021/07/07 05:07:16;;;;;;;4.00;1.77;;;;;;;15.05;100.00;101186.38;6271550;28;20079;-75
2021/07/07 05:10:19;;;;;;;4.70;1.67;;;;;;;15.06;100.00;101188.06;6271411;28;20393;-75
2021/07/07 05:13:21;;;;;;;6.40;1.23;;;;;;;15.08;100.00;101185.31;6271654;28;20048;-75
2021/07/07 05:16:23;;;;;;;3.85;1.42;;;;;;;15.07;100.00;101184.47;6271763;28;20041;-77
2021/07/07 05:19:24;;;;;;;5.95;1.88;;;;;;;15.07;100.00;101192.41;6270851;28;20055;-77
2021/07/07 05:22:25;;;;;;;5.82;1.80;;;;;;;15.12;100.00;101195.59;6270881;28;20063;-75
2021/07/07 05:25:28;;;;;;;8.73;2.00;;;;;;;15.15;100.00;101192.78;6271500;28;20056;-75
2021/07/07 05:28:30;;;;;;;4.57;1.65;;;;;;;15.23;99.95;101190.47;6271207;28;20067;-75
2021/07/07 05:31:32;;;;;;;6.13;1.33;;;;;;;15.33;98.70;101190.72;6271621;28;20049;-75
2021/07/07 05:34:35;;;;;;;4.57;1.40;;;;;;;15.40;97.73;101199.97;6271623;28;20068;-77
2021/07/07 05:37:36;;;;;;;2.30;1.23;;;;;;;15.47;97.46;101193.28;6271224;28;20053;-75
2021/07/07 05:40:39;;;;;;;5.95;1.88;;;;;;;15.54;96.07;101199.03;6270966;28;20045;-75
2021/07/07 05:43:40;;;;;;;4.55;1.75;;;;;;;15.56;96.52;101213.03;6271463;28;20049;-75
2021/07/07 05:46:41;;;;;;;5.35;1.67;;;;;;;15.62;96.28;101206.47;6271394;28;20459;-76
2021/07/07 05:49:43;;;;;;;5.90;2.08;;;;;;;15.65;97.49;101215.09;6270997;28;20044;-76
2021/07/07 05:52:45;;;;;;;4.80;1.50;;;;;;;15.71;97.46;101219.13;6271381;28;20053;-76
2021/07/07 05:55:47;;;;;;;7.00;1.95;;;;;;;15.80;97.87;101217.66;6271186;28;20499;-75
2021/07/07 05:58:49;;;;;;;4.75;1.80;;;;;;;15.87;98.37;101218.94;6270670;28;20048;-75
2021/07/07 06:01:51;;;;;;;11.50;1.85;;;;;;;15.92;98.40;101224.78;6271040;28;20211;-77
2021/07/07 06:04:52;;;;;;;10.35;1.58;;;;;;;15.97;98.26;101223.50;6270947;28;20060;-76
2021/07/07 06:07:54;;;;;;;5.53;1.60;;;;;;;16.05;98.14;101224.81;6270807;28;20381;-76
2021/07/07 06:10:57;;;;;;;4.50;1.35;;;;;;;16.08;99.04;101221.91;6271693;28;20134;-76
2021/07/07 06:13:59;;;;;;;8.23;1.67;;;;;;;16.13;98.88;101228.63;6275603;28;20052;-75
2021/07/07 06:17:00;;;;;;;5.85;1.42;;;;;;;16.20;99.11;101231.69;6275758;28;20045;-75
2021/07/07 06:20:01;;;;;;;8.20;1.80;;;;;;;16.22;99.40;101238.59;6275423;28;20045;-77
2021/07/07 06:23:03;;;;;;;6.65;1.92;;;;;;;16.28;99.30;101232.00;6275668;28;20052;-76
2021/07/07 06:26:06;;;;;;;13.27;1.88;;;;;;;16.29;99.23;101236.34;6275725;28;20133;-75
2021/07/07 06:29:07;;;;;;;5.38;1.55;;;;;;;16.41;100.00;101235.50;6275419;28;20049;-76
2021/07/07 06:32:09;;;;;;;4.10;1.30;;;;;;;16.38;100.00;101248.97;6275232;28;20056;-75
2021/07/07 06:35:10;;;;;;;6.15;1.85;;;;;;;16.47;100.00;101242.19;6275445;28;20060;-75
2021/07/07 06:38:12;;;;;;;6.70;2.03;;;;;;;16.55;100.00;101250.47;6291703;28;20488;-76
2021/07/07 06:41:15;;;;;;;3.50;1.52;;;;;;;16.53;100.00;101251.50;6298090;28;20518;-76
2021/07/07 06:44:16;;;;;;;6.75;1.77;;;;;;;16.49;100.00;101256.19;6299989;28;20048;-76
2021/07/07 06:47:17;;;;;;;3.92;1.50;;;;;;;16.48;100.00;101252.66;6299550;28;20055;-77
2021/07/07 06:50:19;;;;;;;5.95;1.50;;;;;;;16.57;100.00;101261.78;6299521;28;20048;-76
2021/07/07 06:53:23;;;;;;;7.68;1.65;;;;;;;16.68;100.00;101264.56;6290180;28;20045;-76
2021/07/07 06:56:25;;;;;;;5.65;1.48;;;;;;;16.75;100.00;101257.03;6274911;28;20049;-77
2021/07/07 06:59:27;;;;;;;7.85;1.20;;;;;;;16.77;98.96;101252.47;6285244;28;20063;-78
2021/07/07 07:02:30;;;;;;;5.55;1.50;;;;;;;16.83;98.39;101257.34;6299456;28;20427;-78
2021/07/07 07:05:34;;;;;;;5.32;1.40;;;;;;;16.91;99.41;101251.50;6299318;28;20503;-78
2021/07/07 07:08:35;;;;;;;6.35;2.00;;;;;;;16.93;97.48;101258.38;6299852;28;20492;-77
2021/07/07 07:11:39;;;;;;;9.55;1.40;;;;;;;16.99;96.92;101259.75;6299322;28;20063;-78
2021/07/07 07:14:40;;;;;;;5.68;1.50;;;;;;;17.03;96.04;101255.03;6299529;28;20048;-77
2021/07/07 07:17:42;;;;;;;4.00;1.35;;;;;;;17.12;94.59;101257.91;6293041;28;20055;-78
2021/07/07 07:20:43;;;;;;;5.32;1.10;;;;;;;17.25;92.68;101264.00;6298674;28;20045;-77
2021/07/07 07:23:45;;;;;;;7.07;1.90;;;;;;;17.35;94.26;101260.66;6298547;28;20048;-76
2021/07/07 07:26:47;;;;;;;9.35;1.50;;;;;;;17.38;95.45;101265.75;6298780;28;20086;-76
2021/07/07 07:29:49;;;;;;;5.43;1.42;;;;;;;17.52;95.80;101272.72;6298639;28;20412;-76
2021/07/07 07:32:51;;;;;;;7.13;1.83;;;;;;;17.58;94.47;101272.28;6287500;28;20051;-76
2021/07/07 07:35:52;;;;;;;8.43;2.13;;;;;;;17.70;92.23;101271.34;6296511;28;20075;-75
2021/07/07 07:39:04;;;;;;;7.25;1.30;;;;;;;17.78;91.54;101273.47;6298129;28;20514;-76
2021/07/07 07:42:07;;;;;;;7.65;1.60;;;;;;;17.85;90.75;101278.22;6298697;28;20059;-76
2021/07/07 07:45:09;;;;;;;5.07;1.42;;;;;;;17.93;93.29;101278.47;6298433;28;20044;-76
2021/07/07 07:48:11;;;;;;;7.65;2.08;;;;;;;18.06;88.31;101281.03;6290683;28;20061;-76
2021/07/07 07:51:12;;;;;;;8.13;2.03;;;;;;;18.10;87.97;101285.16;6273365;28;20068;-76
2021/07/07 07:54:13;;;;;;;11.43;1.70;;;;;;;18.08;89.75;101284.44;6273624;28;20060;-76
2021/07/07 07:57:16;;;;;;;4.97;1.50;;;;;;;18.24;85.99;101289.44;6277383;28;20045;-76
2021/07/07 08:00:20;;;;;;;5.68;1.30;;;;;;;18.29;85.69;101279.28;6297924;28;20047;-76
2021/07/07 08:03:21;;;;;;;4.07;1.92;;;;;;;18.45;86.00;101273.63;6298178;28;20067;-77
2021/07/07 08:06:23;;;;;;;6.57;1.45;;;;;;;18.42;87.30;101280.03;6289556;28;20495;-76
2021/07/07 08:09:24;;;;;;;5.47;1.20;;;;;;;18.54;90.24;101270.25;6280975;28;20056;-76
2021/07/07 08:12:27;;;;;;;8.82;2.35;;;;;;;18.51;92.01;101273.13;6294822;28;20044;-76
2021/07/07 08:15:29;;;;;;;6.97;1.65;;;;;;;18.59;89.72;101262.75;6284372;28;20416;-77
2021/07/07 08:18:30;;;;;;;4.85;1.60;;;;;;;18.67;86.06;101264.81;6271881;28;20053;-76
2021/07/07 08:21:32;;;;;;;6.57;1.42;;;;;;;18.82;83.56;101268.94;6272903;28;20060;-76
2021/07/07 08:24:33;;;;;;;12.13;1.80;;;;;;;18.84;80.61;101260.81;6289315;28;20041;-76
2021/07/07 08:27:36;;;;;;;6.78;1.60;;;;;;;18.87;83.04;101269.41;6287910;28;20048;-76
2021/07/07 08:30:37;;;;;;;5.63;1.50;;;;;;;18.91;82.96;101265.53;6271493;28;20049;-76
2021/07/07 08:33:39;;;;;;;6.28;1.33;;;;;;;18.91;85.92;101270.88;6271745;28;20064;-76
2021/07/07 08:36:40;;;;;;;6.10;1.83;;;;;;;18.99;87.00;101275.59;6284983;28;20041;-76
2021/07/07 08:39:42;;;;;;;6.93;1.30;;;;;;;19.12;76.97;101278.97;6289567;28;20040;-76
2021/07/07 08:42:46;;;;;;;7.63;1.40;;;;;;;19.22;80.05;101277.22;6290441;28;20404;-76
2021/07/07 08:45:48;;;;;;;9.90;1.60;;;;;;;19.37;76.39;101283.13;6271671;28;20413;-76
2021/07/07 08:48:50;;;;;;;7.88;1.90;;;;;;;19.47;75.99;101283.22;6271386;28;20134;-74
2021/07/07 08:51:51;;;;;;;8.38;1.80;;;;;;;19.46;77.60;101289.53;6271739;28;20045;-75
2021/07/07 08:54:53;;;;;;;9.48;1.50;;;;;;;19.55;74.60;101287.91;6271756;28;20057;-76
2021/07/07 08:57:56;;;;;;;7.78;2.15;;;;;;;19.58;76.26;101290.34;6270809;28;20051;-77
2021/07/07 09:00:58;;;;;;;7.63;1.63;;;;;;;19.71;78.90;101281.22;6285211;28;20064;-77
2021/07/07 09:04:00;;;;;;;11.93;1.90;;;;;;;19.77;74.99;101283.38;6296445;28;20052;-76
2021/07/07 09:07:03;;;;;;;8.98;1.35;;;;;;;19.88;74.82;101290.47;6296379;28;20051;-76
2021/07/07 09:10:06;;;;;;;6.03;1.90;;;;;;;19.98;77.46;101291.41;6275187;28;20053;-76
2021/07/07 09:13:17;;;;;;;8.80;1.80;;;;;;;20.10;77.03;101294.84;6271280;28;20072;-76
2021/07/07 09:16:20;;;;;;;12.30;2.33;;;;;;;20.14;79.07;101304.28;6271561;28;20081;-76
2021/07/07 09:19:23;;;;;;;9.27;1.50;;;;;;;20.18;78.66;101304.88;6271008;28;20045;-76
2021/07/07 09:22:27;;;;;;;10.57;1.85;;;;;;;20.08;80.65;101304.81;6271421;28;20053;-76
2021/07/07 09:25:29;;;;;;;9.85;1.77;;;;;;;19.97;80.86;101311.03;6271616;28;20518;-76
2021/07/07 09:28:33;;;;;;;4.75;1.30;;;;;;;19.94;77.56;101302.44;6270594;28;20493;-77
2021/07/07 09:31:37;;;;;;;12.70;1.67;;;;;;;20.05;72.88;101302.41;6271771;28;20044;-76
2021/07/07 09:34:40;;;;;;;7.43;1.70;;;;;;;20.21;70.42;101291.25;6280713;28;20091;-76
2021/07/07 09:37:49;;;;;;;9.65;1.85;;;;;;;20.26;71.92;101305.06;6296231;28;20056;-76
2021/07/07 09:40:50;;;;;;;8.98;1.88;;;;;;;20.34;75.04;101309.75;6295109;28;20045;-76
2021/07/07 09:43:55;;;;;;;10.57;1.67;;;;;;;20.45;71.38;101304.34;6295850;28;20449;-77
2021/07/07 09:46:57;;;;;;;14.40;1.50;;;;;;;20.75;65.32;101291.00;6297911;28;20090;-76
2021/07/07 09:49:59;;;;;;;10.38;1.95;;;;;;;20.79;69.50;101294.25;6289380;28;20099;-74
2021/07/07 09:53:01;;;;;;;13.75;2.92;;;;;;;20.81;70.10;101291.47;6276297;28;20053;-76
2021/07/07 09:56:03;;;;;;;11.35;2.05;;;;;;;20.93;68.98;101295.72;6275866;28;20056;-76
2021/07/07 09:59:06;;;;;;;11.38;1.48;;;;;;;21.11;70.08;101293.25;6275295;28;20049;-76
2021/07/07 10:02:07;;;;;;;7.35;1.67;;;;;;;21.14;71.38;101293.81;6276300;28;20045;-76
2021/07/07 10:05:15;;;;;;;14.60;2.05;;;;;;;21.35;68.16;101288.41;6275432;28;20844;-77
2021/07/07 10:08:18;;;;;;;7.00;1.52;;;;;;;21.48;60.65;101298.81;6275213;28;20511;-76
2021/07/07 10:11:21;;;;;;;3.88;1.60;;;;;;;21.35;60.43;101295.56;6275789;28;20060;-77
2021/07/07 10:14:24;;;;;;;11.55;1.85;;;;;;;21.16;63.91;101299.84;6275918;28;20060;-75
2021/07/07 10:17:26;;;;;;;11.27;1.85;;;;;;;21.03;61.99;101293.94;6275472;28;20049;-76
2021/07/07 10:20:27;;;;;;;8.75;1.77;;;;;;;21.03;66.04;101294.78;6275000;28;20072;-76
2021/07/07 10:23:32;;;;;;;8.57;1.30;;;;;;;21.03;62.29;101294.78;6275072;28;20444;-77
2021/07/07 10:26:34;;;;;;;8.10;1.35;;;;;;;21.07;58.38;101286.47;6275611;28;20052;-74
2021/07/07 10:29:37;;;;;;;7.45;1.60;;;;;;;21.35;58.60;101293.75;6274653;28;20045;-76
2021/07/07 10:32:39;;;;;;;6.20;1.30;;;;;;;21.37;55.18;101291.78;6275628;28;20519;-76
2021/07/07 10:35:40;;;;;;;8.60;1.60;;;;;;;21.22;61.07;101288.63;6284224;28;20420;-76
2021/07/07 10:38:49;;;;;;;6.95;1.63;;;;;;;21.12;60.89;101298.47;6283931;28;20139;-77
2021/07/07 10:41:56;;;;;;;9.38;1.40;;;;;;;21.15;61.41;101292.81;6295862;28;20040;-77
2021/07/07 10:44:59;;;;;;;8.25;1.70;;;;;;;21.36;60.20;101292.78;6296556;28;20094;-76
2021/07/07 10:48:29;;;;;;;12.55;1.60;;;;;;;21.50;61.17;101291.53;6298595;28;20356;-76
2021/07/07 10:51:31;;;;;;;5.93;1.50;;;;;;;21.71;59.63;101284.22;6275003;28;20123;-76
2021/07/07 10:54:34;;;;;;;8.25;1.80;;;;;;;21.67;59.53;101287.31;6284808;28;20045;-76
2021/07/07 10:57:36;;;;;;;9.77;2.53;;;;;;;21.63;65.06;101289.44;6299385;28;20071;-76
2021/07/07 11:00:41;;;;;;;4.97;1.60;;;;;;;21.77;61.69;101277.44;6298531;28;20044;-76
2021/07/07 11:03:59;;;;;;;8.43;1.45;;;;;;;22.03;59.18;101286.59;6299136;28;20091;-76
2021/07/07 11:07:24;;;;;;;8.23;1.90;;;;;;;21.98;60.46;101302.25;6283743;28;20099;-77
2021/07/07 11:10:25;;;;;;;8.90;2.00;;;;;;;22.26;59.05;101299.69;6292807;28;20049;-77
2021/07/07 11:13:28;;;;;;;8.23;1.60;;;;;;;22.63;56.80;101291.69;6299021;28;20198;-77
2021/07/07 11:16:31;;;;;;;8.27;1.23;;;;;;;23.12;56.13;101291.47;6299532;28;20174;-77
2021/07/07 11:19:51;;;;;;;10.30;1.77;;;;;;;23.33;60.90;101304.63;6298384;28;20416;-76
2021/07/07 11:22:59;;;;;;;10.43;1.80;;;;;;;23.19;55.39;101298.75;6299239;28;20056;-77
2021/07/07 11:26:01;;;;;;;11.75;1.90;;;;;;;22.88;56.21;101300.03;6298769;28;20052;-76
2021/07/07 11:29:04;;;;;;;11.43;2.22;;;;;;;22.62;56.59;101302.53;6298660;28;20522;-77
2021/07/07 11:32:22;;;;;;;10.73;1.55;;;;;;;23.22;57.25;101301.16;6298648;28;20056;-77
2021/07/07 11:35:27;;;;;;;10.93;1.60;;;;;;;23.81;54.53;101308.81;6298806;28;20045;-77
2021/07/07 11:38:30;;;;;;;16.60;1.70;;;;;;;23.60;56.70;101306.41;6298090;28;20056;-76
2021/07/07 11:41:31;;;;;;;17.33;1.92;;;;;;;23.26;60.02;101309.75;6273803;28;20078;-77
2021/07/07 11:44:40;;;;;;;6.93;1.52;;;;;;;23.04;60.63;101319.03;6273592;28;20059;-76
2021/07/07 11:47:42;;;;;;;8.90;1.90;;;;;;;22.85;57.72;101314.59;6274004;28;20070;-78
2021/07/07 11:50:47;;;;;;;6.45;1.50;;;;;;;22.94;57.40;101319.09;6282942;28;20297;-76
2021/07/07 11:53:50;;;;;;;11.50;1.60;;;;;;;22.94;51.73;101312.88;6298204;28;20396;-77
2021/07/07 11:56:59;;;;;;;9.82;1.70;;;;;;;22.66;54.43;101315.47;6298243;28;20483;-78
2021/07/07 12:00:00;;;;;;;7.93;1.50;;;;;;;22.48;56.13;101330.63;6298005;28;20056;-77
2021/07/07 12:03:03;;;;;;;4.97;1.30;;;;;;;22.48;54.69;101330.63;6298249;28;20044;-76
2021/07/07 12:06:07;;;;;;;8.65;1.63;;;;;;;22.50;54.60;101334.84;6298181;28;20048;-76
2021/07/07 12:09:16;;;;;;;7.30;2.28;;;;;;;22.68;54.68;101328.75;6297024;28;20495;-75
2021/07/07 12:12:17;;;;;;;10.43;1.85;;;;;;;23.11;53.62;101327.31;6297822;28;20109;-76
2021/07/07 12:15:23;;;;;;;4.32;1.20;;;;;;;23.07;57.48;101321.41;6297570;28;20055;-76
2021/07/07 12:18:27;;;;;;;11.93;1.63;;;;;;;22.89;54.17;101318.69;6297236;28;20048;-76
2021/07/07 12:21:37;;;;;;;5.30;1.40;;;;;;;22.67;56.10;101324.38;6297533;28;20189;-76
2021/07/07 12:24:42;;;;;;;10.80;1.58;;;;;;;22.48;59.54;101320.78;6297315;28;20060;-76
2021/07/07 12:27:43;;;;;;;13.25;1.85;;;;;;;22.46;56.70;101336.13;6297553;28;20048;-76
2021/07/07 12:30:45;;;;;;;9.48;1.60;;;;;;;22.58;60.36;101335.97;6297125;28;20051;-76
2021/07/07 12:33:52;;;;;;;3.75;1.33;;;;;;;23.16;55.44;101322.34;6297125;28;20063;-76
2021/07/07 12:36:57;;;;;;;8.02;1.88;;;;;;;23.76;51.03;101326.22;6297173;28;20053;-77
2021/07/07 12:40:00;;;;;;;9.90;1.75;;;;;;;24.10;52.22;101321.97;6296639;28;20048;-76
2021/07/07 12:43:15;;;;;;;13.05;1.83;;;;;;;24.85;51.82;101325.84;6296692;28;20049;-76
2021/07/07 12:46:16;;;;;;;8.82;1.65;;;;;;;25.39;52.97;101323.72;6285685;28;20044;-76
2021/07/07 12:49:25;;;;;;;18.42;2.20;;;;;;;24.99;52.64;101324.41;6296218;28;20045;-76
2021/07/07 12:52:29;;;;;;;18.80;1.90;;;;;;;24.29;60.29;101325.28;6296918;28;20051;-77
2021/07/07 12:55:31;;;;;;;6.45;1.27;;;;;;;23.91;56.52;101317.63;6296682;28;20059;-76
2021/07/07 12:58:33;;;;;;;12.55;2.15;;;;;;;24.10;57.30;101320.13;6296389;28;20049;-76
2021/07/07 13:01:34;;;;;;;10.23;1.67;;;;;;;24.68;54.43;101316.00;6296735;28;20044;-76
2021/07/07 13:04:37;;;;;;;6.25;1.27;;;;;;;24.57;48.05;101322.47;6296879;28;20052;-76
2021/07/07 13:07:38;;;;;;;7.93;1.50;;;;;;;24.52;49.84;101317.59;6296610;28;20479;-76
2021/07/07 13:10:41;;;;;;;8.40;1.40;;;;;;;24.77;48.90;101323.94;6295731;28;20155;-76
2021/07/07 13:13:43;;;;;;;8.73;1.48;;;;;;;24.45;51.50;101340.72;6296534;28;20048;-76
2021/07/07 13:16:52;;;;;;;6.53;1.00;;;;;;;23.94;49.25;101328.91;6296410;28;20082;-77
2021/07/07 13:20:01;;;;;;;5.20;1.30;;;;;;;23.62;54.18;101324.03;6282010;28;20080;-77
2021/07/07 13:23:04;;;;;;;5.70;1.50;;;;;;;23.34;52.54;101325.91;6275844;28;20048;-76
2021/07/07 13:26:23;;;;;;;7.10;1.48;;;;;;;23.15;52.29;101342.13;6285125;28;20048;-76
2021/07/07 13:29:26;;;;;;;6.38;1.38;;;;;;;22.89;52.49;101339.22;6290265;28;20048;-76
2021/07/07 13:32:28;;;;;;;9.80;1.38;;;;;;;22.84;51.48;101344.19;6296343;28;20044;-76
2021/07/07 13:35:30;;;;;;;8.15;1.60;;;;;;;22.88;53.98;101343.75;6296419;28;20515;-76
2021/07/07 13:38:32;;;;;;;9.48;4.82;;;;;;;22.55;55.27;101345.13;6295794;28;20073;-76
2021/07/07 13:41:33;;;;;;;12.23;3.88;;;;;;;22.40;57.30;101350.13;6295847;28;20487;-76
2021/07/07 13:44:35;;;;;;;5.53;1.50;;;;;;;22.34;54.97;101339.13;6284291;28;20501;-76
2021/07/07 13:47:37;;;;;;;4.00;1.40;;;;;;;22.21;58.22;101340.28;6271446;28;20512;-76
2021/07/07 13:50:39;;;;;;;10.00;2.22;;;;;;;22.19;57.89;101352.09;6270810;28;20053;-76
2021/07/07 13:53:41;;;;;;;9.05;1.85;;;;;;;22.27;55.60;101349.56;6271116;28;20049;-76
2021/07/07 13:56:42;;;;;;;10.40;2.22;;;;;;;22.34;54.96;101355.19;6271489;28;20053;-76
2021/07/07 13:59:44;;;;;;;11.13;1.95;;;;;;;22.35;57.80;101357.75;6292468;28;20040;-76
2021/07/07 14:02:46;;;;;;;9.38;1.85;;;;;;;22.47;56.12;101351.22;6296124;28;20526;-76
2021/07/07 14:05:48;;;;;;;7.43;1.58;;;;;;;22.63;57.45;101353.31;6296045;28;20052;-76